Time;durP1;ratioP1;P1;durP2;ratioP2;P2;SDS_P1;SDS_P2;PMS_P1;PMS_P2;Temp;Humidity;BMP_temperature;BMP_pressure;BME280_temperature;BME280_humidity;BME280_pressure;Samples;Min_cycle;Max_cycle;Signal;HPM_P1;HPM_P2
2022/11/11 05:30:23;;;;;;;4.18;3.03;;;11.90;86.30;;;;;;6022162;23;20108;31
2022/11/11 05:32:50;;;;;;;7.60;3.67;;;11.80;86.40;;;;;;4876241;29;20109;-80
2022/11/11 05:35:17;;;;;;;5.93;3.42;;;11.60;87.10;;;;;;4848107;29;20041;-81
2022/11/11 05:37:43;;;;;;;8.65;2.90;;;11.50;87.70;;;;;;4864686;29;20034;-80
2022/11/11 05:40:10;;;;;;;9.00;3.78;;;11.50;87.30;;;;;;4864529;29;20029;-82
2022/11/11 05:42:41;;;;;;;9.73;3.50;;;11.50;87.40;;;;;;4846260;29;20033;-82
2022/11/11 05:45:07;;;;;;;4.13;2.60;;;11.30;87.20;;;;;;4847117;29;20029;-80
2022/11/11 05:47:33;;;;;;;5.53;3.50;;;11.30;87.30;;;;;;4864583;29;20095;-81
2022/11/11 05:49:58;;;;;;;5.32;3.28;;;11.30;87.60;;;;;;4864037;29;20152;-81
2022/11/11 05:52:24;;;;;;;6.30;3.05;;;11.40;87.50;;;;;;4864489;29;20041;-81
2022/11/11 05:55:10;;;;;;;6.50;3.28;;;11.50;87.30;;;;;;4864793;29;20207;-81
2022/11/11 05:57:35;;;;;;;6.00;3.45;;;11.60;87.00;;;;;;4878330;29;20064;-81
2022/11/11 06:00:01;;;;;;;8.15;3.85;;;11.70;87.10;;;;;;4863779;29;20526;-80
2022/11/11 06:02:27;;;;;;;9.10;4.13;;;11.70;86.70;;;;;;4861673;29;20497;-80
2022/11/11 06:04:53;;;;;;;6.15;3.30;;;11.60;86.80;;;;;;4873678;29;20089;-80
2022/11/11 06:07:18;;;;;;;5.47;3.50;;;11.50;86.30;;;;;;4873429;29;20034;-80
2022/11/11 06:09:44;;;;;;;8.20;3.67;;;11.50;86.80;;;;;;4864159;29;20068;-80
2022/11/11 06:13:00;;;;;;;6.88;3.47;;;11.60;87.00;;;;;;4878865;29;20036;-80
2022/11/11 06:15:13;;;;;;;6.82;3.50;;;11.60;86.30;;;;;;4864554;29;20041;-81
2022/11/11 06:18:02;;;;;;;6.82;3.67;;;11.40;86.90;;;;;;4864003;29;20097;-80
2022/11/11 06:20:28;;;;;;;6.00;3.38;;;11.40;87.00;;;;;;4858649;29;20054;-81
2022/11/11 06:22:55;;;;;;;10.95;4.90;;;11.50;86.90;;;;;;4863989;29;20038;-80
2022/11/11 06:28:05;;;;;;;7.78;4.72;;;11.60;86.90;;;;;;4864649;29;20081;-80
2022/11/11 06:30:31;;;;;;;8.73;4.32;;;11.50;86.90;;;;;;4863628;29;20050;-80
2022/11/11 06:32:57;;;;;;;9.63;4.90;;;11.60;86.90;;;;;;4864250;29;20076;-80
2022/11/11 06:35:22;;;;;;;7.25;3.75;;;11.60;86.90;;;;;;4864098;29;20021;-80
2022/11/11 06:37:48;;;;;;;7.97;2.72;;;11.60;86.30;;;;;;4863668;29;20033;-80
2022/11/11 06:40:14;;;;;;;10.77;3.92;;;11.50;86.80;;;;;;4864222;29;20037;-80
2022/11/11 06:42:39;;;;;;;9.07;5.15;;;11.50;87.30;;;;;;4863956;29;20403;-80
2022/11/11 06:45:06;;;;;;;8.52;4.07;;;11.50;86.60;;;;;;4863078;29;20021;-81
2022/11/11 06:47:31;;;;;;;6.53;3.30;;;11.50;87.20;;;;;;4847550;29;20085;-81
2022/11/11 06:49:57;;;;;;;8.18;4.22;;;11.50;87.20;;;;;;4863491;29;20033;-81
2022/11/11 06:52:30;;;;;;;8.13;4.22;;;11.60;87.30;;;;;;4863475;29;20044;-80
2022/11/11 06:54:55;;;;;;;9.48;4.63;;;11.70;87.00;;;;;;4863863;29;20073;-80
2022/11/11 06:57:24;;;;;;;9.02;4.13;;;11.70;86.70;;;;;;4863369;29;20089;-80
2022/11/11 06:59:49;;;;;;;10.50;4.40;;;11.80;86.70;;;;;;4863833;29;20030;-81
2022/11/11 07:02:15;;;;;;;9.48;3.90;;;11.80;86.50;;;;;;4847413;29;20045;-81
2022/11/11 07:04:41;;;;;;;9.95;4.43;;;11.40;86.60;;;;;;4863048;29;20028;-81
2022/11/11 07:07:06;;;;;;;9.95;3.92;;;11.30;87.50;;;;;;4863946;29;20033;-81
2022/11/11 07:09:32;;;;;;;6.93;4.22;;;11.30;87.30;;;;;;4862299;29;20033;-82
2022/11/11 07:11:58;;;;;;;7.78;4.30;;;11.40;87.80;;;;;;4867246;29;20033;-82
2022/11/11 07:14:24;;;;;;;7.78;4.32;;;11.40;87.10;;;;;;4862238;29;20105;-82
2022/11/11 07:16:50;;;;;;;7.82;3.80;;;11.30;87.30;;;;;;4863048;29;20045;-85
2022/11/11 07:19:15;;;;;;;7.00;4.03;;;11.30;86.70;;;;;;4864563;29;20037;-78
2022/11/11 07:21:41;;;;;;;10.13;5.20;;;11.30;87.10;;;;;;4863849;29;20077;-79
2022/11/11 07:24:06;;;;;;;9.18;3.72;;;11.40;87.30;;;;;;4863070;29;20093;-82
2022/11/11 07:26:32;;;;;;;7.80;5.22;;;11.50;86.80;;;;;;4847063;29;20041;-83
2022/11/11 07:28:58;;;;;;;11.60;4.60;;;11.70;86.40;;;;;;4863495;29;20099;-84
2022/11/11 07:31:23;;;;;;;13.05;4.90;;;11.60;86.50;;;;;;4862982;29;20056;-84
2022/11/11 07:33:49;;;;;;;7.25;3.90;;;11.70;86.20;;;;;;4862279;29;20049;-82
2022/11/11 07:36:14;;;;;;;11.40;5.32;;;11.60;86.10;;;;;;4862978;29;20037;-85
2022/11/11 07:38:40;;;;;;;10.90;5.55;;;11.70;86.30;;;;;;4862082;29;20033;-81
2022/11/11 07:41:06;;;;;;;12.10;5.90;;;11.80;86.00;;;;;;4862477;29;20025;-89
2022/11/11 07:43:31;;;;;;;13.38;5.15;;;11.80;85.80;;;;;;4862988;29;20458;-86
2022/11/11 07:45:57;;;;;;;9.70;4.55;;;11.60;85.80;;;;;;4863628;29;20505;-87
2022/11/11 07:48:22;;;;;;;6.95;4.88;;;11.50;85.90;;;;;;4863568;29;20116;-83
2022/11/11 07:50:51;;;;;;;7.68;4.38;;;11.30;86.80;;;;;;4862854;29;20101;-87
2022/11/11 07:53:17;;;;;;;9.38;5.38;;;11.30;86.90;;;;;;4862047;29;20041;-84
2022/11/11 07:55:45;;;;;;;7.88;3.58;;;11.20;87.30;;;;;;4862099;29;20030;-81
2022/11/11 07:58:11;;;;;;;7.88;4.82;;;11.30;87.00;;;;;;4847683;29;20041;-83
2022/11/11 08:00:36;;;;;;;7.93;4.65;;;11.40;87.00;;;;;;4862983;29;20154;-85
2022/11/11 08:03:02;;;;;;;6.13;3.75;;;11.20;86.30;;;;;;4860180;29;20051;-85
2022/11/11 08:05:27;;;;;;;9.43;5.05;;;11.00;86.60;;;;;;4853930;29;20130;-85
2022/11/11 08:07:53;;;;;;;9.60;5.75;;;11.00;87.10;;;;;;4877353;29;20120;-85
2022/11/11 08:10:19;;;;;;;10.45;5.47;;;11.20;86.90;;;;;;4861944;29;20131;-89
2022/11/11 08:15:28;;;;;;;9.38;5.43;;;11.20;86.90;;;;;;4861454;29;20117;-86
2022/11/11 08:17:54;;;;;;;8.93;5.38;;;11.20;86.40;;;;;;4875703;29;20128;-85
2022/11/11 08:20:20;;;;;;;12.93;6.10;;;11.20;86.30;;;;;;4843787;29;20066;-79
2022/11/11 08:22:45;;;;;;;9.13;4.63;;;11.30;86.30;;;;;;4860342;29;20026;-83
2022/11/11 08:25:15;;;;;;;9.48;4.75;;;11.30;85.20;;;;;;4861556;29;20026;-83
2022/11/11 08:27:40;;;;;;;9.43;4.85;;;10.90;85.50;;;;;;4860103;29;20052;-81
2022/11/11 08:30:07;;;;;;;9.35;5.15;;;10.80;86.50;;;;;;4860949;29;20451;-85
2022/11/11 08:32:33;;;;;;;9.20;4.93;;;10.80;86.50;;;;;;4861199;29;20105;-81
2022/11/11 08:34:59;;;;;;;8.95;4.38;;;10.80;86.00;;;;;;4859169;29;20525;-80
2022/11/11 08:37:25;;;;;;;9.93;4.85;;;10.90;86.40;;;;;;4860546;29;20041;-81
2022/11/11 08:39:53;;;;;;;12.50;5.18;;;10.90;85.70;;;;;;4860947;29;20033;-79
2022/11/11 08:42:19;;;;;;;12.20;5.43;;;11.00;85.60;;;;;;4860913;29;20052;-80
2022/11/11 08:44:45;;;;;;;12.13;5.18;;;11.00;85.60;;;;;;4861342;29;20533;-88
2022/11/11 08:47:11;;;;;;;11.45;5.07;;;11.00;85.40;;;;;;4859970;29;20024;-82
2022/11/11 08:49:37;;;;;;;8.05;5.25;;;11.20;85.40;;;;;;4861108;29;20037;-81
2022/11/11 08:52:02;;;;;;;7.63;5.00;;;11.20;84.90;;;;;;4856794;29;20442;-76
2022/11/11 08:54:28;;;;;;;18.42;7.88;;;11.30;85.20;;;;;;4862183;29;20102;-83
2022/11/11 08:56:55;;;;;;;11.57;5.75;;;11.20;84.90;;;;;;4862029;29;20041;-85
2022/11/11 08:59:20;;;;;;;10.77;5.70;;;11.10;84.90;;;;;;4837056;29;20026;-85
2022/11/11 09:01:46;;;;;;;10.85;6.63;;;11.00;85.10;;;;;;4848012;29;20561;-83
2022/11/11 09:04:11;;;;;;;10.38;5.63;;;10.90;85.40;;;;;;4861591;29;20030;-84
2022/11/11 09:06:40;;;;;;;10.88;6.72;;;10.80;86.30;;;;;;4861457;29;20112;-83
2022/11/11 09:09:05;;;;;;;11.05;6.97;;;10.80;86.20;;;;;;4862782;29;20030;-83
2022/11/11 09:11:35;;;;;;;12.52;6.35;;;11.00;86.00;;;;;;4864107;29;20065;-83
2022/11/11 09:14:01;;;;;;;13.60;8.00;;;11.00;85.50;;;;;;4863962;29;20029;-79
2022/11/11 09:16:26;;;;;;;11.30;7.07;;;11.00;85.50;;;;;;4862013;29;20132;-85
2022/11/11 09:18:52;;;;;;;16.45;8.00;;;11.00;84.80;;;;;;4863005;29;20104;-83
2022/11/11 09:21:18;;;;;;;14.63;8.27;;;11.00;85.00;;;;;;4842530;29;20037;-85
2022/11/11 09:23:44;;;;;;;18.00;9.18;;;10.90;85.60;;;;;;4863788;29;20021;-84
2022/11/11 09:26:09;;;;;;;12.13;6.78;;;10.90;85.30;;;;;;4857995;29;20025;-83
2022/11/11 09:28:35;;;;;;;12.70;6.68;;;10.80;85.40;;;;;;4862652;29;20042;-84
2022/11/11 09:31:01;;;;;;;13.23;6.95;;;10.90;86.00;;;;;;4861247;29;20065;-84
2022/11/11 09:33:26;;;;;;;12.52;7.47;;;11.00;85.70;;;;;;4859778;29;20093;-83
2022/11/11 09:35:52;;;;;;;14.10;7.50;;;11.10;85.50;;;;;;4845131;29;20113;-83
2022/11/11 09:38:18;;;;;;;12.63;7.18;;;11.00;85.60;;;;;;4852685;29;20029;-82
2022/11/11 09:40:53;;;;;;;8.68;6.00;;;11.10;85.30;;;;;;4861583;29;20037;-82
2022/11/11 09:43:39;;;;;;;8.32;4.72;;;11.20;85.30;;;;;;4863218;29;20030;-84
2022/11/11 09:46:07;;;;;;;9.43;5.30;;;11.30;85.30;;;;;;4857881;29;20036;-84
2022/11/11 09:49:07;;;;;;;11.52;5.63;;;11.30;84.00;;;;;;4853128;29;20041;-84
2022/11/11 09:51:59;;;;;;;11.57;5.45;;;11.20;84.60;;;;;;4862384;29;20478;-84
2022/11/11 09:54:33;;;;;;;10.60;5.03;;;11.20;84.30;;;;;;4863489;29;20042;-85
2022/11/11 09:57:03;;;;;;;11.30;5.50;;;11.20;83.90;;;;;;4844358;29;20062;-84
2022/11/11 09:59:45;;;;;;;9.18;4.70;;;11.10;84.50;;;;;;4861638;29;20409;-85
2022/11/11 10:02:37;;;;;;;8.48;4.78;;;11.00;84.50;;;;;;4872293;29;20030;-86
2022/11/11 10:05:26;;;;;;;9.57;4.93;;;11.00;85.10;;;;;;4870737;29;20037;-85
2022/11/11 10:08:15;;;;;;;9.75;5.28;;;11.00;84.20;;;;;;4858907;29;20033;-86
2022/11/11 10:10:45;;;;;;;8.87;5.00;;;10.80;84.70;;;;;;4863826;29;20033;-85
2022/11/11 10:13:15;;;;;;;10.98;6.00;;;10.80;85.40;;;;;;4863913;29;20427;-85
2022/11/11 10:15:48;;;;;;;10.98;5.45;;;11.00;85.70;;;;;;4862919;29;20033;-87
2022/11/11 10:18:36;;;;;;;12.27;6.18;;;11.10;85.00;;;;;;4859044;29;20037;-86
2022/11/11 10:21:07;;;;;;;9.52;5.18;;;11.20;84.90;;;;;;4860156;29;20025;-85
2022/11/11 10:23:36;;;;;;;9.15;5.38;;;11.00;85.20;;;;;;4839955;29;20105;-86
2022/11/11 10:26:33;;;;;;;10.43;5.70;;;11.10;85.00;;;;;;4861806;29;20040;-86
2022/11/11 10:29:01;;;;;;;10.48;5.18;;;11.10;85.20;;;;;;4834418;29;20646;-87
2022/11/11 10:31:27;;;;;;;9.82;5.10;;;11.20;84.70;;;;;;4861893;29;20569;-87
2022/11/11 10:34:09;;;;;;;8.05;5.53;;;11.30;84.40;;;;;;4863026;29;20029;-86
2022/11/11 10:36:42;;;;;;;8.32;4.53;;;11.50;84.50;;;;;;4860766;29;20029;-86
2022/11/11 10:39:14;;;;;;;9.73;4.60;;;11.40;83.70;;;;;;4847171;29;20041;-86
2022/11/11 10:41:47;;;;;;;13.23;6.05;;;11.20;83.80;;;;;;4859983;29;20030;-87
2022/11/11 10:44:25;;;;;;;10.23;4.72;;;11.30;84.30;;;;;;4862688;29;20037;-86
2022/11/11 10:47:08;;;;;;;9.82;5.60;;;11.30;84.40;;;;;;4861568;29;20064;-86
2022/11/11 10:49:41;;;;;;;9.07;4.80;;;11.40;84.50;;;;;;4862930;29;20058;-83
2022/11/11 10:52:21;;;;;;;9.25;4.57;;;11.30;84.50;;;;;;4863365;29;20104;-91
2022/11/11 10:54:47;;;;;;;;;;;11.20;84.20;;;;;;4845036;29;20026;-88
2022/11/11 10:57:24;;;;;;;11.77;4.90;;;11.30;85.00;;;;;;4846743;29;19920;-86
2022/11/11 11:00:00;;;;;;;13.77;6.20;;;11.50;84.80;;;;;;4862930;29;20132;-87
2022/11/11 11:02:33;;;;;;;9.00;5.30;;;11.50;84.20;;;;;;4845008;29;20029;-86
2022/11/11 11:05:28;;;;;;;8.55;4.90;;;11.60;83.90;;;;;;4850324;29;20828;-85
2022/11/11 11:08:00;;;;;;;10.93;4.90;;;11.60;83.80;;;;;;4847090;29;20053;-86
2022/11/11 11:10:34;;;;;;;9.73;4.50;;;11.70;83.50;;;;;;4858550;29;20029;-86
2022/11/11 11:13:37;;;;;;;8.68;4.82;;;11.80;83.50;;;;;;4861260;29;20033;-86
2022/11/11 11:16:07;;;;;;;7.88;3.88;;;11.80;83.00;;;;;;4829823;29;20042;-87
2022/11/11 11:18:33;;;;;;;7.30;4.78;;;11.90;83.00;;;;;;4854743;29;20048;-87
2022/11/11 11:21:03;;;;;;;7.95;4.15;;;11.90;82.30;;;;;;4860753;29;20054;-87
2022/11/11 11:23:39;;;;;;;10.18;5.13;;;11.90;82.70;;;;;;4844868;29;20112;-86
2022/11/11 11:26:08;;;;;;;5.68;3.75;;;11.80;82.50;;;;;;4846292;29;20101;-86
2022/11/11 11:28:34;;;;;;;6.43;4.20;;;11.80;82.20;;;;;;4859323;29;20116;-88
2022/11/11 11:31:03;;;;;;;8.32;4.25;;;11.80;81.90;;;;;;4861158;29;20149;-83
2022/11/11 11:33:48;;;;;;;8.05;4.57;;;11.80;82.90;;;;;;4864065;29;20476;-83
2022/11/11 11:36:18;;;;;;;11.32;4.68;;;11.80;82.80;;;;;;4868117;29;20044;-81
2022/11/11 11:38:49;;;;;;;13.23;5.68;;;12.00;82.70;;;;;;4860230;29;20461;-85
2022/11/11 11:41:43;;;;;;;8.95;4.68;;;12.00;82.50;;;;;;4853692;29;20509;-83
2022/11/11 11:44:25;;;;;;;10.82;5.53;;;12.20;82.80;;;;;;4850116;29;20108;-81
2022/11/11 11:46:59;;;;;;;13.65;7.50;;;12.20;82.40;;;;;;4854309;29;20025;-82
2022/11/11 11:49:51;;;;;;;11.30;6.65;;;12.20;82.20;;;;;;4856783;29;20041;-80
2022/11/11 11:52:41;;;;;;;14.43;7.90;;;11.80;82.60;;;;;;4856348;29;20482;-81
2022/11/11 11:55:21;;;;;;;18.50;8.32;;;11.80;83.30;;;;;;4859966;29;20060;-79
2022/11/11 11:57:53;;;;;;;22.55;10.77;;;11.80;83.50;;;;;;4858728;29;20129;-79
2022/11/11 12:00:34;;;;;;;19.67;10.20;;;11.90;82.90;;;;;;4841998;29;20030;-80
2022/11/11 12:03:12;;;;;;;17.58;8.18;;;12.00;83.20;;;;;;4845021;29;20554;-80
2022/11/11 12:05:40;;;;;;;12.88;5.78;;;11.80;83.00;;;;;;4847703;29;20030;-81
2022/11/11 12:08:28;;;;;;;14.20;8.00;;;11.70;83.10;;;;;;4860060;29;20030;-83
2022/11/11 12:11:17;;;;;;;12.55;5.60;;;11.70;84.00;;;;;;4866520;29;20551;-83
2022/11/11 12:14:04;;;;;;;10.90;5.80;;;11.60;84.20;;;;;;4861118;29;20413;-86
2022/11/11 12:16:47;;;;;;;13.30;5.97;;;11.80;83.90;;;;;;4845252;29;20041;-85
2022/11/11 12:19:40;;;;;;;11.52;6.15;;;11.80;83.10;;;;;;4846172;29;20040;-82
2022/11/11 12:22:24;;;;;;;16.00;7.43;;;11.80;83.20;;;;;;4865022;29;20021;-84
2022/11/11 12:25:10;;;;;;;15.38;6.82;;;11.90;83.40;;;;;;4864576;29;20033;-85
2022/11/11 12:27:42;;;;;;;14.05;7.00;;;11.80;82.90;;;;;;4869813;29;20424;-81
2022/11/11 12:30:13;;;;;;;9.50;5.28;;;11.80;83.10;;;;;;4859033;29;20040;-82
2022/11/11 12:32:45;;;;;;;12.35;6.45;;;11.80;83.50;;;;;;4867170;29;20033;-82
2022/11/11 12:35:25;;;;;;;11.25;5.57;;;11.80;83.60;;;;;;4868120;29;20037;-80
2022/11/11 12:38:06;;;;;;;10.25;5.85;;;11.80;83.40;;;;;;4853146;29;20037;-82
2022/11/11 12:41:10;;;;;;;9.80;6.03;;;11.80;83.10;;;;;;4868210;29;20029;-90
2022/11/11 12:43:47;;;;;;;11.93;5.70;;;12.00;83.10;;;;;;4867087;29;20033;-87
2022/11/11 12:46:30;;;;;;;10.45;6.15;;;12.00;82.60;;;;;;4868158;29;20036;-93
2022/11/11 12:49:28;;;;;;;14.32;6.30;;;12.10;83.10;;;;;;4867897;29;20037;-89
2022/11/11 12:52:11;;;;;;;11.93;6.63;;;12.20;82.50;;;;;;4855450;29;20803;-87
2022/11/11 12:55:02;;;;;;;8.40;5.55;;;12.20;82.70;;;;;;4871335;29;20069;-93
2022/11/11 12:57:51;;;;;;;7.50;4.85;;;12.20;82.60;;;;;;4867346;29;20458;-89
2022/11/11 13:00:23;;;;;;;9.33;5.60;;;12.50;82.30;;;;;;4869610;29;20041;-92
2022/11/11 13:03:09;;;;;;;13.15;6.20;;;12.50;81.50;;;;;;4861579;29;20290;-91
2022/11/11 13:05:40;;;;;;;12.90;6.03;;;12.50;81.80;;;;;;4873770;29;20033;-86
2022/11/11 13:08:06;;;;;;;11.20;6.03;;;12.60;81.60;;;;;;4866141;29;20033;-85
2022/11/11 13:11:09;;;;;;;12.65;6.57;;;12.70;81.70;;;;;;4870630;29;20045;-84
2022/11/11 13:14:01;;;;;;;11.38;6.60;;;12.70;81.20;;;;;;4873623;29;20046;-86
2022/11/11 13:16:26;;;;;;;10.15;5.70;;;12.70;81.50;;;;;;4866408;29;20467;-86
2022/11/11 13:19:21;;;;;;;8.43;5.00;;;12.50;81.90;;;;;;4871362;29;20117;-86
2022/11/11 13:22:07;;;;;;;12.77;5.80;;;12.40;81.80;;;;;;4870677;29;20033;-80
2022/11/11 13:24:34;;;;;;;13.07;6.40;;;12.40;82.10;;;;;;4868756;29;20093;-79
2022/11/11 13:27:15;;;;;;;12.15;5.57;;;12.30;81.60;;;;;;4869803;29;20040;-79
2022/11/11 13:30:07;;;;;;;10.00;6.35;;;12.10;82.20;;;;;;4871147;29;20077;-78
2022/11/11 13:32:56;;;;;;;14.70;6.55;;;12.20;82.50;;;;;;4852674;29;20126;-80
2022/11/11 13:35:47;;;;;;;11.27;6.30;;;12.20;81.70;;;;;;4854679;29;20032;-79
2022/11/11 13:38:26;;;;;;;15.65;7.30;;;12.20;82.30;;;;;;4836376;29;20038;-84
2022/11/11 13:40:55;;;;;;;15.45;7.95;;;12.20;82.20;;;;;;4849792;29;20028;-81
2022/11/11 13:43:48;;;;;;;9.48;6.03;;;12.30;82.30;;;;;;4848266;29;20065;-80
2022/11/11 13:46:40;;;;;;;12.95;5.82;;;12.40;82.00;;;;;;4845634;29;20768;-80
2022/11/11 13:49:28;;;;;;;11.57;7.18;;;12.40;82.00;;;;;;4850102;29;20044;-80
2022/11/11 13:52:00;;;;;;;12.20;7.10;;;12.40;81.30;;;;;;4851376;29;20044;-80
2022/11/11 13:54:35;;;;;;;14.23;8.40;;;12.50;81.90;;;;;;4850379;29;20038;-80
2022/11/11 13:57:22;;;;;;;11.70;6.63;;;12.50;81.60;;;;;;4851330;29;20046;-80
2022/11/11 14:00:27;;;;;;;11.43;6.93;;;12.60;81.30;;;;;;4851335;29;20030;-80
2022/11/11 14:03:16;;;;;;;12.55;5.35;;;12.50;80.70;;;;;;4838001;29;20041;-80
2022/11/11 14:05:43;;;;;;;9.30;5.28;;;12.50;81.20;;;;;;4812226;29;20414;-81
2022/11/11 14:08:09;;;;;;;9.43;5.03;;;12.30;81.10;;;;;;4853022;29;20038;-80
2022/11/11 14:10:34;;;;;;;9.40;6.05;;;12.30;81.20;;;;;;4845754;29;20053;-80
2022/11/11 14:13:25;;;;;;;10.23;6.03;;;12.30;81.20;;;;;;4844356;29;20112;-81
2022/11/11 14:15:53;;;;;;;14.43;5.07;;;12.30;81.50;;;;;;4853432;29;20034;-82
2022/11/11 14:18:18;;;;;;;11.82;6.30;;;12.20;81.60;;;;;;4845295;29;20565;-82
2022/11/11 14:20:52;;;;;;;11.50;5.65;;;12.20;81.80;;;;;;4845395;29;20122;-82
2022/11/11 14:23:17;;;;;;;11.15;5.45;;;12.20;81.70;;;;;;4844365;29;20383;-81
2022/11/11 14:25:47;;;;;;;11.30;6.90;;;12.30;81.90;;;;;;4845276;29;20029;-82
2022/11/11 14:28:19;;;;;;;;;;;12.40;81.70;;;;;;4842824;29;20029;-83
2022/11/11 14:30:45;;;;;;;11.82;5.85;;;12.50;81.40;;;;;;4849304;29;19924;-79
2022/11/11 14:33:34;;;;;;;15.25;7.50;;;12.70;81.10;;;;;;4846388;29;20101;-81
2022/11/11 14:36:21;;;;;;;11.07;6.28;;;12.80;80.90;;;;;;4856740;29;20030;-82
2022/11/11 14:39:38;;;;;;;12.93;6.55;;;12.80;80.90;;;;;;4862952;29;20097;-80
2022/11/11 14:42:24;;;;;;;13.23;7.13;;;12.80;81.00;;;;;;4824003;29;20040;-80
2022/11/11 14:44:50;;;;;;;10.50;7.03;;;12.70;81.20;;;;;;4855907;29;20029;-81
2022/11/11 14:47:15;;;;;;;12.18;6.20;;;12.70;81.00;;;;;;4860482;29;20153;-80
2022/11/11 14:49:46;;;;;;;14.10;8.18;;;12.70;80.90;;;;;;4857273;29;20217;-80
2022/11/11 14:52:30;;;;;;;;;;;12.60;80.80;;;;;;4861913;29;20119;-80
2022/11/11 14:55:01;;;;;;;11.27;6.53;;;12.70;81.50;;;;;;4865990;29;20010;-81
2022/11/11 14:57:35;;;;;;;6.72;4.65;;;12.80;81.30;;;;;;4871441;29;20040;-79
2022/11/11 15:00:04;;;;;;;12.45;7.53;;;12.60;80.60;;;;;;4857475;29;20026;-83
2022/11/11 15:02:35;;;;;;;15.98;7.10;;;12.60;81.50;;;;;;4861122;29;20046;-87
2022/11/11 15:05:02;;;;;;;13.05;7.07;;;12.70;81.50;;;;;;4845250;29;20026;-79
2022/11/11 15:07:59;;;;;;;9.80;6.00;;;12.70;81.50;;;;;;4860312;29;20044;-79
2022/11/11 15:10:34;;;;;;;12.55;7.25;;;12.70;81.40;;;;;;4861593;29;20405;-79
2022/11/11 15:13:22;;;;;;;13.32;6.55;;;12.50;81.50;;;;;;4862269;29;20077;-79
2022/11/11 15:16:12;;;;;;;11.65;7.20;;;12.50;81.20;;;;;;4862654;29;20035;-81
2022/11/11 15:18:43;;;;;;;11.68;6.60;;;12.50;81.80;;;;;;4874212;29;20041;-79
2022/11/11 15:21:26;;;;;;;15.43;7.55;;;12.50;81.60;;;;;;4862710;29;20029;-82
2022/11/11 15:24:12;;;;;;;11.95;6.95;;;12.40;81.50;;;;;;4825543;29;20109;-79
2022/11/11 15:26:54;;;;;;;13.30;7.85;;;12.50;81.60;;;;;;4872868;29;20032;-77
2022/11/11 15:29:47;;;;;;;9.35;6.38;;;12.40;81.60;;;;;;4857218;29;20033;-77
2022/11/11 15:32:13;;;;;;;12.68;7.28;;;12.30;81.70;;;;;;4856699;29;20057;-78
2022/11/11 15:35:05;;;;;;;11.95;6.40;;;12.30;82.10;;;;;;4843616;29;20030;-85
2022/11/11 15:37:30;;;;;;;12.48;7.00;;;12.20;82.30;;;;;;4825025;29;20074;-78
2022/11/11 15:39:57;;;;;;;12.27;7.35;;;12.20;82.80;;;;;;4855100;29;20522;-80
2022/11/11 15:55:22;;;;;;;27.05;12.68;;;12.30;82.50;;;;;;5040914;28;20838;-79
2022/11/11 15:57:48;;;;;;;27.50;13.20;;;12.50;82.00;;;;;;5046188;28;20084;-89
2022/11/11 16:00:23;;;;;;;20.95;10.82;;;12.40;82.20;;;;;;5030269;28;20034;-79
2022/11/11 16:02:51;;;;;;;29.15;14.60;;;12.60;82.10;;;;;;5030332;28;20044;-80
2022/11/11 16:05:24;;;;;;;78.85;25.60;;;12.40;82.10;;;;;;5031298;28;20104;-84
2022/11/11 16:07:54;;;;;;;23.27;11.80;;;12.20;82.30;;;;;;5028277;28;20028;-77
2022/11/11 16:10:35;;;;;;;24.20;10.32;;;12.00;82.50;;;;;;5031480;28;20052;-78
2022/11/11 16:13:00;;;;;;;;;;;12.00;83.00;;;;;;5031292;28;20021;-81
2022/11/11 16:15:41;;;;;;;15.70;7.45;;;12.00;83.10;;;;;;5028860;28;19963;-79
2022/11/11 16:18:31;;;;;;;11.52;7.15;;;12.10;83.00;;;;;;5029182;28;20117;-80
2022/11/11 16:21:15;;;;;;;16.02;8.02;;;12.10;82.70;;;;;;5027076;28;20037;-79
2022/11/11 16:23:42;;;;;;;12.65;7.65;;;12.20;82.80;;;;;;5029959;28;20034;-79
2022/11/11 16:26:08;;;;;;;16.67;8.48;;;12.30;82.60;;;;;;5028812;28;20030;-80
2022/11/11 16:28:49;;;;;;;18.90;9.27;;;12.40;82.40;;;;;;5030952;28;20068;-80
2022/11/11 16:31:33;;;;;;;18.25;8.75;;;12.40;82.20;;;;;;5026686;28;20025;-81
2022/11/11 16:33:59;;;;;;;19.35;9.30;;;12.30;82.20;;;;;;5029360;28;20040;-81
2022/11/11 16:36:25;;;;;;;15.55;9.35;;;12.30;82.50;;;;;;5028958;28;20030;-80
2022/11/11 16:38:50;;;;;;;15.25;8.75;;;12.30;82.60;;;;;;5029138;28;20554;-83
2022/11/11 16:41:27;;;;;;;15.13;10.70;;;12.20;82.50;;;;;;5030440;28;20022;-82
2022/11/11 16:43:55;;;;;;;16.98;10.07;;;12.20;83.10;;;;;;5027410;28;20033;-78
2022/11/11 16:46:35;;;;;;;17.77;11.48;;;12.20;83.00;;;;;;5023152;28;20036;-80
2022/11/11 16:49:20;;;;;;;28.13;14.43;;;12.20;82.80;;;;;;5028320;28;20076;-79
2022/11/11 16:51:47;;;;;;;13.85;8.90;;;11.90;83.40;;;;;;5028594;28;20562;-78
2022/11/11 16:54:26;;;;;;;12.93;7.97;;;11.90;83.70;;;;;;5039729;28;20049;-85
2022/11/11 16:56:56;;;;;;;13.05;8.20;;;11.90;83.90;;;;;;5025503;28;20063;-82
2022/11/11 16:59:25;;;;;;;12.95;7.28;;;11.90;83.80;;;;;;5035233;28;20083;-81
2022/11/11 17:01:51;;;;;;;13.70;8.15;;;11.90;83.70;;;;;;5035051;28;20026;-81
2022/11/11 17:04:16;;;;;;;14.25;7.25;;;11.90;83.80;;;;;;5033805;28;20121;-80
2022/11/11 17:06:48;;;;;;;19.40;9.18;;;11.80;83.80;;;;;;5035085;28;20055;-79
2022/11/11 17:09:40;;;;;;;15.40;9.27;;;11.90;84.10;;;;;;5033544;28;20048;-80
2022/11/11 17:12:07;;;;;;;16.17;8.68;;;11.90;84.10;;;;;;5035477;28;20047;-81
2022/11/11 17:14:36;;;;;;;16.83;10.00;;;12.00;83.80;;;;;;5035023;28;20179;-80
2022/11/11 17:17:04;;;;;;;18.63;9.63;;;11.90;84.10;;;;;;5035174;28;20030;-81
2022/11/11 17:19:32;;;;;;;17.98;10.25;;;12.00;84.10;;;;;;5036435;28;20507;-81
2022/11/11 17:22:08;;;;;;;17.17;9.30;;;12.20;84.00;;;;;;5030110;28;20077;-78
2022/11/11 17:24:34;;;;;;;16.60;9.13;;;12.20;83.50;;;;;;5031974;28;20036;-80
2022/11/11 17:27:00;;;;;;;13.30;9.32;;;12.30;83.40;;;;;;5036940;28;20030;-81
2022/11/11 17:29:25;;;;;;;16.50;9.95;;;12.30;83.30;;;;;;5035572;28;20032;-80
2022/11/11 17:31:51;;;;;;;16.65;9.68;;;12.30;83.30;;;;;;5033502;28;20031;-80
2022/11/11 17:34:19;;;;;;;18.35;11.60;;;12.30;83.20;;;;;;5033753;28;20033;-79
2022/11/11 17:36:45;;;;;;;18.10;10.68;;;12.30;83.00;;;;;;5036006;28;20026;-79
2022/11/11 17:39:10;;;;;;;17.33;11.18;;;12.30;83.00;;;;;;5036558;28;20510;-80
2022/11/11 17:41:36;;;;;;;18.38;9.18;;;12.30;83.30;;;;;;5036321;28;20053;-79
2022/11/11 17:44:01;;;;;;;17.55;9.68;;;12.30;83.30;;;;;;5034031;28;20029;-83
2022/11/11 17:46:27;;;;;;;16.17;9.23;;;12.30;83.20;;;;;;5035957;28;20388;-80
2022/11/11 17:48:54;;;;;;;14.95;9.20;;;12.30;83.20;;;;;;5036140;28;20507;-80
2022/11/11 17:51:23;;;;;;;14.57;8.90;;;12.30;83.20;;;;;;5031957;28;20095;-81
2022/11/11 17:53:50;;;;;;;14.25;10.05;;;12.30;83.10;;;;;;5033636;28;20105;-80
2022/11/11 17:56:15;;;;;;;18.70;10.35;;;12.30;83.40;;;;;;5033585;28;20036;-81
2022/11/11 17:58:41;;;;;;;24.60;13.85;;;12.30;83.20;;;;;;5028751;28;20029;-79
2022/11/11 18:01:08;;;;;;;21.13;11.75;;;12.30;83.30;;;;;;5035162;28;20021;-80
2022/11/11 18:03:34;;;;;;;21.85;12.52;;;12.30;83.20;;;;;;5034986;28;20080;-80
2022/11/11 18:05:59;;;;;;;15.90;10.27;;;12.30;83.20;;;;;;5034630;28;20028;-80
2022/11/11 18:08:29;;;;;;;50.25;19.92;;;12.30;83.20;;;;;;5032208;28;20027;-80
2022/11/11 18:10:59;;;;;;;26.60;15.70;;;12.30;83.10;;;;;;5034962;28;20022;-80
2022/11/11 18:13:25;;;;;;;21.50;11.88;;;12.30;83.10;;;;;;5033198;28;20033;-79
2022/11/11 18:15:51;;;;;;;23.08;13.57;;;12.20;83.20;;;;;;5033778;28;20562;-80
2022/11/11 18:18:16;;;;;;;19.67;11.98;;;12.20;83.20;;;;;;5032772;28;20045;-80
2022/11/11 18:20:42;;;;;;;22.48;11.52;;;12.20;83.10;;;;;;5036291;28;20025;-82
2022/11/11 18:23:08;;;;;;;21.20;12.15;;;12.20;83.00;;;;;;5034921;28;20037;-82
2022/11/11 18:25:33;;;;;;;17.42;11.32;;;12.20;82.80;;;;;;5034583;28;20159;-77
2022/11/11 18:27:59;;;;;;;21.08;12.27;;;12.10;83.10;;;;;;5034925;28;20120;-84
2022/11/11 18:30:24;;;;;;;21.73;13.63;;;12.10;83.10;;;;;;5035653;28;20024;-77
2022/11/11 18:32:50;;;;;;;24.25;13.48;;;12.00;82.80;;;;;;5067923;28;20030;-76
2022/11/11 18:35:17;;;;;;;26.63;14.88;;;12.00;83.10;;;;;;5030592;28;20075;-76
2022/11/11 18:37:43;;;;;;;24.17;14.05;;;12.00;83.00;;;;;;5034465;28;20036;-76
2022/11/11 18:40:09;;;;;;;27.08;15.73;;;12.00;82.80;;;;;;5029162;28;20025;-76
2022/11/11 18:42:35;;;;;;;20.83;13.25;;;12.00;82.70;;;;;;5032656;28;20060;-76
2022/11/11 18:45:01;;;;;;;23.40;14.55;;;12.00;82.60;;;;;;5035324;28;20030;-76
2022/11/11 18:47:26;;;;;;;23.05;13.70;;;12.00;82.60;;;;;;5035505;28;20037;-76
2022/11/11 18:49:52;;;;;;;26.90;15.13;;;11.90;82.70;;;;;;5059014;28;20108;-77
2022/11/11 18:52:18;;;;;;;28.85;16.23;;;11.90;82.40;;;;;;5034175;28;20029;-77
2022/11/11 18:54:43;;;;;;;28.25;13.52;;;11.90;82.60;;;;;;5034382;28;20053;-79
2022/11/11 18:57:09;;;;;;;22.15;13.18;;;11.80;82.60;;;;;;5021824;28;20048;-85